Time;durP1;ratioP1;P1;durP2;ratioP2;P2;SDS_P1;SDS_P2;PMS_P1;PMS_P2;Temp;Humidity;BMP_temperature;BMP_pressure;BME280_temperature;BME280_humidity;BME280_pressure;Samples;Min_cycle;Max_cycle;Signal;HPM_P1;HPM_P2
2021/06/09 00:00:22;;;;;;;;;5.00;5.00;;;;;19.53;50.06;101952.41;6279459;22;45196;-93
2021/06/09 00:02:47;;;;;;;;;4.50;4.50;;;;;19.50;50.17;101953.44;6279657;22;47124;-93
2021/06/09 00:05:13;;;;;;;;;6.00;6.00;;;;;19.48;49.96;101952.69;6278207;22;45396;-94
2021/06/09 00:07:38;;;;;;;;;5.67;5.33;;;;;19.44;49.83;101959.06;6279702;22;45829;-93
2021/06/09 00:10:05;;;;;;;;;4.00;4.00;;;;;19.40;49.90;101954.03;6279831;22;45597;-94
2021/06/09 00:12:32;;;;;;;;;8.00;5.25;;;;;19.36;50.04;101962.09;6277598;22;47183;-93
2021/06/09 00:14:58;;;;;;;;;6.00;6.00;;;;;19.35;50.42;101959.56;6279277;22;45601;-93
2021/06/09 00:17:24;;;;;;;;;6.00;6.00;;;;;19.27;50.11;101948.56;6279324;22;45281;-94
2021/06/09 00:19:49;;;;;;;;;6.25;4.00;;;;;19.26;50.48;101960.06;6279458;22;45232;-94
2021/06/09 00:22:15;;;;;;;;;7.75;6.00;;;;;19.23;50.43;101958.44;6278796;22;47384;-94
2021/06/09 00:24:40;;;;;;;;;4.00;4.00;;;;;19.20;50.51;101954.16;6279028;22;45239;-93
2021/06/09 00:27:06;;;;;;;;;5.00;5.00;;;;;19.15;50.26;101950.06;6279417;22;45264;-94
2021/06/09 00:29:31;;;;;;;;;5.33;5.00;;;;;19.13;50.31;101958.06;6280946;22;45457;-93
2021/06/09 00:31:57;;;;;;;;;5.00;5.00;;;;;19.05;50.61;101942.66;6280282;22;48489;-93
2021/06/09 00:34:22;;;;;;;;;5.00;5.00;;;;;19.03;50.83;101955.03;6280807;22;45274;-94
2021/06/09 00:36:48;;;;;;;;;5.00;5.00;;;;;19.00;50.85;101946.41;6280789;22;45226;-94
2021/06/09 00:39:13;;;;;;;;;6.33;5.00;;;;;18.98;51.16;101950.94;6280928;22;45337;-94
2021/06/09 00:41:39;;;;;;;;;4.00;4.00;;;;;18.94;51.08;101944.97;6279184;22;47732;-94
2021/06/09 00:44:05;;;;;;;;;4.50;4.50;;;;;18.89;51.24;101947.00;6280015;22;45420;-93
2021/06/09 00:46:38;;;;;;;;;6.25;5.00;;;;;18.84;50.95;101944.56;6280163;22;45281;-94
2021/06/09 00:49:05;;;;;;;;;4.25;4.25;;;;;18.78;51.17;101932.56;6280793;22;45381;-94
2021/06/09 00:51:31;;;;;;;;;5.00;5.00;;;;;18.73;51.77;101937.22;6280283;22;47126;-94
2021/06/09 00:53:59;;;;;;;;;5.75;5.75;;;;;18.74;51.11;101946.00;6280281;22;45227;-93
2021/06/09 00:56:26;;;;;;;;;6.00;6.00;;;;;18.71;51.84;101944.38;6280753;22;45125;-95
2021/06/09 00:58:53;;;;;;;;;5.75;5.50;;;;;18.67;51.49;101946.31;6280934;22;45238;-93
2021/06/09 01:01:21;;;;;;;;;5.00;5.00;;;;;18.60;51.88;101931.72;6278613;22;47187;-93
2021/06/09 01:03:48;;;;;;;;;5.75;5.75;;;;;18.60;51.61;101939.63;6279953;22;45902;-93
2021/06/09 01:06:14;;;;;;;;;5.00;5.00;;;;;18.58;52.34;101940.66;6280496;22;45322;-93
2021/06/09 01:08:42;;;;;;;;;4.25;4.25;;;;;18.50;52.20;101934.00;6280454;22;45632;-93
2021/06/09 01:11:15;;;;;;;;;7.00;6.00;;;;;18.45;52.20;101940.41;6280172;22;47172;-94
2021/06/09 01:13:40;;;;;;;;;5.75;5.75;;;;;18.41;52.14;101940.59;6279990;22;45608;-93
2021/06/09 01:16:06;;;;;;;;;6.25;6.25;;;;;18.37;52.12;101939.03;6280080;22;45357;-94
2021/06/09 01:18:32;;;;;;;;;5.75;5.25;;;;;18.34;52.41;101933.06;6280576;22;45503;-94
2021/06/09 01:20:58;;;;;;;;;5.00;5.00;;;;;18.32;52.86;101930.50;6279666;22;47345;-94
2021/06/09 01:23:27;;;;;;;;;9.50;6.00;;;;;18.29;52.57;101934.13;6280555;22;45338;-93
2021/06/09 01:25:53;;;;;;;;;6.00;6.00;;;;;18.23;52.46;101931.81;6280241;22;45185;-94
2021/06/09 01:28:19;;;;;;;;;5.50;5.50;;;;;18.19;52.76;101927.63;6308294;22;45369;-93
2021/06/09 01:30:45;;;;;;;;;7.00;7.00;;;;;18.18;52.50;101930.34;6280089;22;46826;-94
2021/06/09 01:33:11;;;;;;;;;8.50;6.00;;;;;18.14;53.10;101933.13;6306593;22;46008;-93
2021/06/09 01:35:37;;;;;;;;;6.25;5.25;;;;;18.13;52.75;101939.31;6280390;22;45247;-94
2021/06/09 01:38:04;;;;;;;;;5.00;5.00;;;;;18.06;52.93;101930.03;6279941;22;45382;-93
2021/06/09 01:40:29;;;;;;;;;6.50;4.75;;;;;18.02;53.46;101931.06;6278901;22;47152;-93
2021/06/09 01:42:56;;;;;;;;;6.50;5.00;;;;;17.98;53.15;101925.09;6279795;22;45269;-93
2021/06/09 01:45:25;;;;;;;;;7.00;7.00;;;;;17.95;53.25;101927.03;6280430;22;45337;-93
2021/06/09 01:47:51;;;;;;;;;5.75;5.75;;;;;17.92;53.50;101929.78;6280356;22;45151;-93
2021/06/09 01:50:19;;;;;;;;;7.50;7.50;;;;;17.87;53.58;101933.50;6280019;22;47136;-94
2021/06/09 01:52:47;;;;;;;;;6.00;6.00;;;;;17.82;53.72;101934.66;6280006;22;45315;-94
2021/06/09 01:55:14;;;;;;;;;6.00;6.00;;;;;17.79;53.94;101932.16;6279998;22;45125;-93
2021/06/09 01:57:40;;;;;;;;;5.00;4.75;;;;;17.77;53.69;101925.19;6280656;22;45437;-94
2021/06/09 02:00:11;;;;;;;;;6.00;6.00;;;;;17.70;54.19;101922.91;6279511;22;47064;-93
2021/06/09 02:02:38;;;;;;;;;7.00;5.25;;;;;17.70;54.15;101931.69;6279628;22;45314;-93
2021/06/09 02:05:06;;;;;;;;;4.00;4.00;;;;;17.64;53.97;101929.34;6279997;22;45207;-94
2021/06/09 02:07:40;;;;;;;;;6.00;6.00;;;;;17.62;53.87;101926.78;6280111;22;45446;-94
2021/06/09 02:10:18;;;;;;;;;7.00;5.75;;;;;17.60;54.06;101933.88;6279173;22;47198;-93
2021/06/09 02:12:46;;;;;;;;;6.75;6.75;;;;;17.55;54.29;101925.34;6280525;22;45295;-93
2021/06/09 02:15:13;;;;;;;;;5.00;5.00;;;;;17.50;54.21;101925.56;6279950;22;45277;-94
2021/06/09 02:17:42;;;;;;;;;7.00;5.00;;;;;17.48;54.25;101922.16;6280331;22;44750;-93
2021/06/09 02:20:10;;;;;;;;;6.50;5.00;;;;;17.48;54.47;101926.56;6280010;22;47074;-94
2021/06/09 02:22:36;;;;;;;;;9.00;6.75;;;;;17.47;54.18;101936.25;6279007;22;45349;-93
2021/06/09 02:25:05;;;;;;;;;6.50;5.50;;;;;17.42;54.07;101927.72;6279984;22;45238;-94
2021/06/09 02:27:34;;;;;;;;;5.00;5.00;;;;;17.40;54.15;101918.19;6280385;22;45319;-93
2021/06/09 02:30:00;;;;;;;;;5.00;5.00;;;;;17.41;54.23;101920.72;6279689;22;47097;-93
2021/06/09 02:32:26;;;;;;;;;5.25;5.25;;;;;17.39;54.11;101917.31;6279980;22;45606;-94
2021/06/09 02:34:52;;;;;;;;;6.75;6.75;;;;;17.36;54.46;101917.47;6280225;22;45200;-94
2021/06/09 02:37:19;;;;;;;;;6.50;5.75;;;;;17.33;54.47;101915.84;6280495;22;45352;-93
2021/06/09 02:39:44;;;;;;;;;5.75;5.75;;;;;17.30;54.34;101912.47;6279537;22;47228;-94
2021/06/09 02:42:18;;;;;;;;;7.00;5.50;;;;;17.28;54.73;101914.31;6279775;22;45794;-94
2021/06/09 02:44:45;;;;;;;;;6.00;5.00;;;;;17.25;54.62;101917.09;6279695;22;45194;-94
2021/06/09 02:47:10;;;;;;;;;6.00;6.00;;;;;17.26;54.81;101924.06;6279445;22;45271;-94
2021/06/09 02:49:38;;;;;;;;;7.25;7.25;;;;;17.23;54.96;101925.06;6279424;22;47888;-94
2021/06/09 02:52:24;;;;;;;;;7.25;7.25;;;;;17.21;55.28;101927.75;6279436;22;45266;-93
2021/06/09 02:55:11;;;;;;;;;5.50;5.50;;;;;17.21;55.07;101924.25;6279596;22;45271;-94
2021/06/09 02:58:06;;;;;;;;;6.00;6.00;;;;;17.17;55.40;101914.81;6306107;22;45171;-94
2021/06/09 03:00:44;;;;;;;;;6.25;6.25;;;;;17.13;55.49;101924.59;6279444;22;48543;-94
2021/06/09 03:03:30;;;;;;;;;6.50;6.00;;;;;17.11;55.28;101921.19;6279889;22;45242;-93
2021/06/09 03:06:07;;;;;;;;;6.00;6.00;;;;;17.08;55.58;101919.56;6280321;22;45179;-93
2021/06/09 03:08:41;;;;;;;;;7.50;5.50;;;;;17.04;55.60;101917.16;6278967;22;45432;-93
2021/06/09 03:11:11;;;;;;;;;5.75;5.75;;;;;17.06;55.81;101923.19;6279613;22;48667;-93
2021/06/09 03:17:08;;;;;;;;;5.50;5.50;;;;;16.96;55.51;101926.16;6307576;22;45387;-93
2021/06/09 03:19:49;;;;;;;;;9.25;7.75;;;;;16.93;56.02;101920.19;6279839;22;45256;-93
2021/06/09 03:22:41;;;;;;;;;7.50;6.50;;;;;16.92;55.87;101926.38;6279277;22;47168;-93
2021/06/09 03:25:07;;;;;;;;;5.50;5.50;;;;;16.88;55.79;101922.19;6279805;22;45246;-93
2021/06/09 03:27:46;;;;;;;;;8.00;5.75;;;;;16.81;55.86;101919.81;6279853;22;45310;-93
2021/06/09 03:30:14;;;;;;;;;7.25;6.50;;;;;16.83;55.88;101928.50;6280219;22;45164;-94
2021/06/09 03:32:53;;;;;;;;;7.00;7.00;;;;;16.79;56.17;101920.81;6278538;22;46795;-94
2021/06/09 03:35:40;;;;;;;;;5.75;5.75;;;;;16.76;56.11;101924.41;6279579;22;45243;-93
2021/06/09 03:38:12;;;;;;;;;10.25;7.00;;;;;16.74;56.51;101933.28;6278764;22;44875;-93
2021/06/09 03:40:40;;;;;;;;;10.00;7.25;;;;;16.68;56.29;101923.91;6280166;22;45377;-94
2021/06/09 03:43:09;;;;;;;;;7.25;7.25;;;;;16.65;56.51;101922.28;6279222;22;48079;-93
2021/06/09 03:45:41;;;;;;;;;7.75;6.75;;;;;16.67;56.26;101924.84;6279515;22;45380;-94
2021/06/09 03:48:08;;;;;;;;;8.00;8.00;;;;;16.65;56.43;101929.28;6279599;22;45346;-93
2021/06/09 03:50:34;;;;;;;;;7.00;7.00;;;;;16.62;56.15;101922.38;6279902;22;45416;-94
2021/06/09 03:53:03;;;;;;;;;7.00;6.00;;;;;16.66;56.31;101929.22;6278497;22;47204;-93
2021/06/09 03:55:33;;;;;;;;;9.25;8.25;;;;;16.64;56.56;101931.06;6279570;22;45363;-93
2021/06/09 03:58:00;;;;;;;;;5.50;5.00;;;;;16.65;56.63;101929.28;6279333;22;45371;-92
2021/06/09 04:00:26;;;;;;;;;6.25;6.25;;;;;16.61;56.66;101923.31;6279075;22;45385;-93
2021/06/09 04:02:55;;;;;;;;;9.00;6.75;;;;;16.59;56.82;101927.78;6280181;22;47195;-93
2021/06/09 04:05:22;;;;;;;;;9.75;9.25;;;;;16.59;56.79;101932.19;6280176;22;45335;-91
2021/06/09 04:07:49;;;;;;;;;10.50;8.00;;;;;16.60;56.83;101926.00;6281100;22;45681;-92
2021/06/09 04:10:17;;;;;;;;;9.75;9.00;;;;;16.60;56.86;101931.25;6281001;22;45338;-92
2021/06/09 04:12:43;;;;;;;;;7.75;7.75;;;;;16.57;56.66;101924.34;6280597;22;47281;-94
2021/06/09 04:15:10;;;;;;;;;10.50;9.00;;;;;16.61;57.22;101930.34;6279962;22;45294;-93
2021/06/09 04:17:39;;;;;;;;;7.00;5.25;;;;;16.54;57.27;101920.09;6281324;22;45168;-93
2021/06/09 04:20:06;;;;;;;;;12.50;10.25;;;;;16.60;57.14;101929.50;6281115;22;45282;-94
2021/06/09 04:22:33;;;;;;;;;12.50;11.25;;;;;16.60;57.26;101926.88;6279260;22;48049;-94
2021/06/09 04:24:59;;;;;;;;;10.50;9.25;;;;;16.61;57.11;101925.09;6280403;22;45234;-94
2021/06/09 04:27:32;;;;;;;;;10.25;7.25;;;;;16.56;57.86;101918.25;6280674;22;45249;-93
2021/06/09 04:29:58;;;;;;;;;9.75;9.25;;;;;16.61;57.36;101931.19;6280642;22;45750;-93
2021/06/09 04:32:27;;;;;;;;;14.00;12.25;;;;;16.63;57.15;101931.13;6280237;22;48058;-94
2021/06/09 04:34:55;;;;;;;;;17.50;12.50;;;;;16.60;57.75;101921.59;6280497;22;45285;-94
2021/06/09 04:37:23;;;;;;;;;16.00;13.75;;;;;16.64;57.96;101925.81;6280266;22;45372;-93
2021/06/09 04:39:51;;;;;;;;;13.00;11.00;;;;;16.66;57.89;101934.47;6281115;22;45384;-93
2021/06/09 04:42:17;;;;;;;;;12.00;10.75;;;;;16.70;57.94;101932.56;6280750;22;47095;-94
2021/06/09 04:44:44;;;;;;;;;11.00;10.75;;;;;16.73;58.09;101934.22;6280588;22;45244;-94
2021/06/09 04:47:11;;;;;;;;;18.75;15.00;;;;;16.74;58.28;101930.66;6280034;22;45369;-94
2021/06/09 04:49:40;;;;;;;;;14.75;14.75;;;;;16.77;58.03;101933.16;6280819;22;45144;-93
2021/06/09 04:52:06;;;;;;;;;14.25;13.50;;;;;16.76;57.81;101921.78;6280316;22;47529;-93
2021/06/09 04:54:32;;;;;;;;;19.25;16.75;;;;;16.80;58.06;101933.06;6280593;22;45464;-93
2021/06/09 04:56:58;;;;;;;;;15.75;15.50;;;;;16.89;58.14;101942.31;6280494;22;45314;-93
2021/06/09 04:59:24;;;;;;;;;20.25;15.50;;;;;16.93;57.88;101942.09;6280569;22;45486;-93
2021/06/09 05:01:49;;;;;;;;;21.75;17.50;;;;;16.99;58.38;101943.59;6280285;22;46625;-93
2021/06/09 05:04:15;;;;;;;;;14.50;14.50;;;;;17.02;57.83;101939.97;6280586;22;45258;-93
2021/06/09 05:06:41;;;;;;;;;10.50;10.25;;;;;17.06;58.29;101939.81;6280136;22;45373;-93
2021/06/09 05:09:08;;;;;;;;;15.00;12.00;;;;;17.11;58.55;101939.59;6280865;22;45291;-93
2021/06/09 05:11:39;;;;;;;;;14.75;12.00;;;;;17.16;57.62;101945.53;6279989;22;46679;-93
2021/06/09 05:14:08;;;;;;;;;13.75;11.50;;;;;17.20;57.34;101943.59;6279790;22;45297;-94
2021/06/09 05:16:37;;;;;;;;;10.75;10.75;;;;;17.30;57.60;101949.28;6279381;22;45327;-93
2021/06/09 05:19:04;;;;;;;;;10.00;9.50;;;;;17.30;57.24;101937.00;6280369;22;45265;-93
2021/06/09 05:21:33;;;;;;;;;11.25;11.00;;;;;17.38;57.33;101951.56;6280060;22;48374;-93
2021/06/09 05:24:01;;;;;;;;;10.00;9.00;;;;;17.41;57.40;101946.19;6280130;22;45342;-93
2021/06/09 05:26:29;;;;;;;;;13.25;9.75;;;;;17.48;56.78;101961.63;6280463;22;45325;-93
2021/06/09 05:29:06;;;;;;;;;9.25;9.25;;;;;17.51;57.10;101947.47;6279975;22;45390;-93
2021/06/09 05:31:34;;;;;;;;;13.00;11.25;;;;;17.58;57.29;101954.16;6279025;22;47167;-93
2021/06/09 05:34:00;;;;;;;;;6.25;6.00;;;;;17.64;57.00;101953.03;6280562;22;45425;-93
2021/06/09 05:36:28;;;;;;;;;10.75;10.75;;;;;17.71;57.14;101956.22;6279683;22;45257;-93
2021/06/09 05:38:54;;;;;;;;;8.25;7.00;;;;;17.75;57.27;101949.88;6280652;22;45298;-93
2021/06/09 05:41:19;;;;;;;;;7.50;7.25;;;;;17.83;56.85;101958.25;6279998;22;47880;-94
2021/06/09 05:43:45;;;;;;;;;11.00;9.00;;;;;17.89;56.39;101955.34;6279750;22;45341;-94
2021/06/09 05:46:11;;;;;;;;;9.50;9.00;;;;;17.95;57.13;101959.47;6305647;22;45371;-93
2021/06/09 05:48:41;;;;;;;;;11.00;9.75;;;;;17.99;56.80;101957.53;6280679;22;45214;-93
2021/06/09 05:51:09;;;;;;;;;9.50;8.25;;;;;18.08;56.63;101956.25;6280289;22;46993;-93
2021/06/09 05:53:35;;;;;;;;;12.50;11.25;;;;;18.12;56.49;101948.16;6279853;22;45344;-93
2021/06/09 05:56:00;;;;;;;;;10.25;10.25;;;;;18.20;56.05;101950.41;6280585;22;45437;-92
2021/06/09 05:58:26;;;;;;;;;11.00;10.00;;;;;18.28;56.54;101950.00;6280411;22;45499;-93
2021/06/09 06:00:57;;;;;;;;;16.00;14.00;;;;;18.34;55.84;101954.13;6279996;22;47118;-93
2021/06/09 06:03:24;;;;;;;;;13.00;13.00;;;;;18.42;56.13;101949.31;6279838;22;45409;-93
2021/06/09 06:05:55;;;;;;;;;11.00;10.75;;;;;18.47;55.87;101938.56;6280054;22;45320;-93
2021/06/09 06:08:20;;;;;;;;;14.25;13.50;;;;;18.56;55.63;101941.59;6280166;22;45432;-93
2021/06/09 06:10:46;;;;;;;;;10.50;9.50;;;;;18.62;55.29;101943.06;6279785;22;46981;-93
2021/06/09 06:13:13;;;;;;;;;20.00;17.25;;;;;18.69;55.74;101944.44;6279969;22;45368;-94
2021/06/09 06:15:39;;;;;;;;;17.50;16.25;;;;;18.77;55.07;101943.19;6279347;22;45373;-93
2021/06/09 06:18:05;;;;;;;;;17.00;14.00;;;;;18.86;55.21;101947.13;6280116;22;45250;-94
2021/06/09 06:20:30;;;;;;;;;18.00;15.25;;;;;18.92;55.32;101945.03;6279130;22;47940;-94
2021/06/09 06:22:56;;;;;;;;;16.50;16.50;;;;;19.00;54.91;101949.91;6279532;22;45349;-94
2021/06/09 06:25:24;;;;;;;;;17.00;17.00;;;;;19.08;54.91;101953.03;6280011;22;45270;-93
2021/06/09 06:27:54;;;;;;;;;16.00;14.50;;;;;19.17;54.56;101950.84;6280121;22;45931;-93
2021/06/09 06:30:25;;;;;;;;;18.75;17.00;;;;;19.26;54.24;101950.34;6279865;22;47277;-93
2021/06/09 06:32:54;;;;;;;;;20.25;19.25;;;;;19.38;54.49;101956.75;6279570;22;45475;-93
2021/06/09 06:35:22;;;;;;;;;17.00;17.00;;;;;19.45;54.33;101946.72;6279107;22;45600;-93
2021/06/09 06:37:50;;;;;;;;;20.25;19.50;;;;;19.54;54.05;101953.28;6279603;22;45528;-93
2021/06/09 06:40:28;;;;;;;;;18.25;18.25;;;;;19.63;53.71;101950.13;6279769;22;47100;-93
2021/06/09 06:45:32;;;;;;;;;21.50;19.00;;;;;19.77;53.42;101947.56;6339597;22;45232;-93
2021/06/09 06:47:58;;;;;;;;;20.00;19.50;;;;;19.87;53.43;101952.34;6311163;22;45456;-94
2021/06/09 06:50:25;;;;;;;;;21.50;21.00;;;;;19.93;53.59;101952.00;6310915;22;48150;-92
2021/06/09 06:52:51;;;;;;;;;19.25;19.25;;;;;19.99;53.41;101958.72;6311244;22;45285;-93
2021/06/09 06:55:19;;;;;;;;;21.00;18.50;;;;;20.04;53.21;101951.41;6310964;22;45319;-93
2021/06/09 06:57:45;;;;;;;;;22.25;20.00;;;;;20.11;52.88;101959.84;6311300;22;45337;-93
2021/06/09 07:00:16;;;;;;;;;18.50;17.75;;;;;20.15;52.71;101950.78;6309127;22;47245;-93
2021/06/09 07:02:47;;;;;;;;;22.25;19.75;;;;;20.24;52.50;101952.91;6310346;22;45222;-93
2021/06/09 07:05:13;;;;;;;;;22.00;20.75;;;;;20.29;52.80;101955.28;6311214;22;45334;-94
2021/06/09 07:07:41;;;;;;;;;21.75;19.00;;;;;20.37;52.44;101960.97;6310990;22;45302;-94
2021/06/09 07:10:08;;;;;;;;;23.00;20.00;;;;;20.42;52.42;101960.72;6310530;22;46959;-93
2021/06/09 07:12:39;;;;;;;;;27.50;24.50;;;;;20.48;52.15;101956.84;6310650;22;45969;-93
2021/06/09 07:15:08;;;;;;;;;23.25;21.75;;;;;20.53;52.38;101963.56;6311390;22;45326;-93
2021/06/09 07:17:39;;;;;;;;;20.25;20.00;;;;;20.60;52.34;101958.75;6311519;22;45487;-94
2021/06/09 07:20:10;;;;;;;;;20.00;19.25;;;;;20.64;52.24;101962.91;6310737;22;47305;-93
2021/06/09 07:22:37;;;;;;;;;24.25;22.25;;;;;20.76;52.08;101961.34;6309733;22;45505;-93
2021/06/09 07:25:04;;;;;;;;;24.00;21.25;;;;;20.81;52.39;101961.06;6311055;22;45321;-93
2021/06/09 07:27:34;;;;;;;;;22.75;22.00;;;;;20.90;51.90;101957.91;6311251;22;45516;-93
2021/06/09 07:30:01;;;;;;;;;18.00;17.25;;;;;20.99;51.70;101967.06;6310593;22;46967;-93
2021/06/09 07:32:27;;;;;;;;;18.75;18.00;;;;;21.08;51.73;101963.88;6310208;22;45747;-93
2021/06/09 07:34:52;;;;;;;;;23.75;23.00;;;;;21.15;52.05;101960.84;6310735;22;45317;-93
2021/06/09 07:37:22;;;;;;;;;24.25;21.50;;;;;21.22;52.22;101962.16;6311318;22;45447;-93
2021/06/09 07:39:58;;;;;;;;;25.75;25.25;;;;;21.29;51.65;101955.53;6311720;22;47492;-94
2021/06/09 07:42:27;;;;;;;;;23.50;18.25;;;;;21.39;51.38;101960.25;6311280;22;45273;-94
2021/06/09 07:44:58;;;;;;;;;30.75;29.00;;;;;21.45;51.06;101958.06;6311843;22;45384;-93
2021/06/09 07:47:24;;;;;;;;;29.00;27.25;;;;;21.50;51.06;101955.13;6311964;22;45619;-94
2021/06/09 07:49:53;;;;;;;;;25.75;22.50;;;;;21.58;50.91;101959.94;6310717;22;47986;-94
2021/06/09 07:52:20;;;;;;;;;17.75;17.25;;;;;21.69;51.20;101962.75;6312281;22;45711;-93
2021/06/09 07:54:50;;;;;;;;;28.75;28.25;;;;;21.81;50.76;101962.94;6312299;22;45524;-92
2021/06/09 07:57:18;;;;;;;;;29.25;28.50;;;;;21.81;50.57;101958.50;6311977;22;45325;-93
2021/06/09 07:59:44;;;;;;;;;26.00;21.50;;;;;21.91;50.44;101968.50;6310764;22;47561;-92
2021/06/09 08:02:16;;;;;;;;;27.25;23.00;;;;;21.99;49.91;101964.38;6311154;22;45681;-92
2021/06/09 08:04:43;;;;;;;;;20.50;16.75;;;;;22.10;50.31;101968.13;6311533;22;45923;-93
2021/06/09 08:07:08;;;;;;;;;22.75;19.75;;;;;22.22;50.11;101963.84;6312041;22;45318;-93
2021/06/09 08:09:34;;;;;;;;;18.50;17.50;;;;;22.31;50.19;101968.50;6310669;22;48023;-93
2021/06/09 08:12:01;;;;;;;;;20.00;17.00;;;;;22.40;50.47;101959.09;6311344;22;45298;-92
2021/06/09 08:14:27;;;;;;;;;17.25;16.75;;;;;22.52;49.29;101958.31;6311250;22;45245;-93
2021/06/09 08:16:53;;;;;;;;;17.25;15.75;;;;;22.64;49.49;101966.38;6311691;22;45404;-93
2021/06/09 08:19:18;;;;;;;;;17.50;16.00;;;;;22.72;48.75;101963.22;6311563;22;46600;-92
2021/06/09 08:21:44;;;;;;;;;14.25;13.75;;;;;22.83;48.75;101965.97;6311657;22;45541;-93
2021/06/09 08:24:10;;;;;;;;;15.25;13.50;;;;;22.87;48.49;101956.81;6311724;22;45412;-93
2021/06/09 08:26:35;;;;;;;;;19.00;18.00;;;;;22.94;48.14;101955.47;6338244;22;45310;-93
2021/06/09 08:29:01;;;;;;;;;15.00;15.00;;;;;23.00;47.92;101962.13;6311756;22;47260;-93
2021/06/09 08:31:29;;;;;;;;;15.75;13.00;;;;;23.12;47.86;101962.22;6311655;22;45431;-94
2021/06/09 08:33:56;;;;;;;;;14.25;13.50;;;;;23.19;47.95;101956.38;6311477;22;45297;-92
2021/06/09 08:36:23;;;;;;;;;11.75;11.75;;;;;23.30;47.90;101960.06;6311472;22;45261;-93
2021/06/09 08:38:51;;;;;;;;;13.33;13.00;;;;;23.42;47.22;101958.38;6337949;22;48013;-94
2021/06/09 08:41:20;;;;;;;;;13.25;12.00;;;;;23.47;47.03;101961.56;6311335;22;45282;-93
2021/06/09 08:43:47;;;;;;;;;9.00;9.00;;;;;23.57;46.95;101957.28;6311427;22;44690;-91
2021/06/09 08:46:13;;;;;;;;;8.75;8.75;;;;;23.63;45.98;101953.31;6311721;22;45244;-92
2021/06/09 08:48:41;;;;;;;;;12.00;9.25;;;;;23.73;46.43;101953.50;6311649;22;47625;-91
2021/06/09 08:51:09;;;;;;;;;10.00;10.00;;;;;23.79;45.76;101946.91;6310896;22;45325;-92
2021/06/09 08:53:36;;;;;;;;;9.33;9.33;;;;;23.91;45.45;101948.63;6311661;22;45265;-93
2021/06/09 08:56:02;;;;;;;;;11.00;9.33;;;;;24.06;44.89;101951.13;6312079;22;45179;-93
2021/06/09 08:58:29;;;;;;;;;7.33;7.33;;;;;24.13;44.74;101945.28;6336143;22;47151;-93
2021/06/09 09:00:58;;;;;;;;;8.67;8.67;;;;;24.25;44.02;101948.81;6311403;22;45619;-93
2021/06/09 09:03:24;;;;;;;;;7.33;7.00;;;;;24.30;43.65;101945.78;6311479;22;45363;-94
2021/06/09 09:05:50;;;;;;;;;13.00;11.00;;;;;24.37;43.26;101944.38;6311817;22;45560;-94
2021/06/09 09:08:15;;;;;;;;;6.00;5.00;;;;;24.40;42.97;101946.78;6336299;22;48310;-93
2021/06/09 09:10:41;;;;;;;;;7.67;6.00;;;;;24.47;42.57;101952.50;6311838;22;45396;-93
2021/06/09 09:13:07;;;;;;;;;7.00;7.00;;;;;24.53;42.16;101957.34;6338429;22;45185;-94
2021/06/09 09:15:32;;;;;;;;;8.00;8.00;;;;;24.62;42.47;101963.75;6338456;22;45232;-94
2021/06/09 09:18:05;;;;;;;;;9.00;8.00;;;;;24.76;41.23;101964.53;6310892;22;46881;-93
2021/06/09 09:20:37;;;;;;;;;7.00;7.00;;;;;24.84;41.65;101970.13;6311161;22;45269;-94
2021/06/09 09:23:16;;;;;;;;;6.00;6.00;;;;;24.93;41.53;101965.88;6311482;22;45419;-94
2021/06/09 09:25:45;;;;;;;;;7.00;6.00;;;;;25.06;41.62;101966.63;6310799;22;45263;-94
2021/06/09 09:28:25;;;;;;;;;5.00;5.00;;;;;25.19;39.89;101963.00;6337253;22;47196;-91
2021/06/09 09:30:54;;;;;;;;;6.33;6.33;;;;;25.25;40.13;101973.16;6311097;22;45687;-91
2021/06/09 09:33:24;;;;;;;;;5.67;5.00;;;;;25.35;39.89;101970.59;6311199;22;45436;-92
2021/06/09 09:35:50;;;;;;;;;5.00;5.00;;;;;25.51;39.82;101970.22;6338321;22;45197;-92
2021/06/09 09:38:30;;;;;;;;;5.67;5.67;;;;;25.66;39.53;101973.50;6336966;22;47284;-92
2021/06/09 09:41:12;;;;;;;;;7.67;6.33;;;;;25.81;39.64;101987.38;6336728;22;45652;-91
2021/06/09 09:43:47;;;;;;;;;6.00;6.00;;;;;25.95;39.29;101982.72;6311010;22;45234;-92
2021/06/09 09:46:20;;;;;;;;;6.00;6.00;;;;;26.14;38.63;101974.03;6310923;22;45250;-91
2021/06/09 09:49:08;;;;;;;;;6.00;6.00;;;;;26.30;39.04;101980.78;6309533;22;47729;-92
2021/06/09 09:51:53;;;;;;;;;5.33;4.67;;;;;26.40;38.30;101979.06;6310332;22;45254;-91
2021/06/09 09:54:28;;;;;;;;;3.67;3.67;;;;;26.57;37.53;101984.78;6311258;22;45522;-91
2021/06/09 09:56:58;;;;;;;;;4.00;4.00;;;;;26.71;37.25;101978.25;6337404;22;45220;-92
2021/06/09 09:59:26;;;;;;;;;5.00;4.00;;;;;26.89;37.42;101973.16;6310151;22;46745;-92
2021/06/09 10:01:54;;;;;;;;;5.00;4.00;;;;;27.08;36.69;101970.59;6310465;22;45766;-92
2021/06/09 10:04:27;;;;;;;;;3.33;3.33;;;;;27.27;37.29;101968.13;6311085;22;45340;-91
2021/06/09 10:06:53;;;;;;;;;6.00;3.33;;;;;27.43;36.76;101965.78;6311223;22;45261;-92
2021/06/09 10:09:23;;;;;;;;;2.67;2.00;;;;;27.58;35.53;101963.59;6309285;22;48004;-94
2021/06/09 10:11:51;;;;;;;;;4.00;3.00;;;;;27.76;35.81;101968.25;6312043;22;45565;-92
2021/06/09 10:14:24;;;;;;;;;3.67;2.67;;;;;27.94;35.08;101975.56;6311377;22;44698;-92
2021/06/09 10:17:01;;;;;;;;;3.00;3.00;;;;;28.03;35.68;101969.38;6311433;22;45275;-91
2021/06/09 10:19:35;;;;;;;;;5.00;4.00;;;;;28.13;35.01;101970.22;6336843;22;46650;-94
2021/06/09 10:22:05;;;;;;;;;5.00;3.33;;;;;28.27;34.83;101971.66;6310690;22;45256;-94
2021/06/09 10:24:57;;;;;;;;;5.00;4.00;;;;;28.39;34.16;101968.81;6310999;22;45317;-93
2021/06/09 10:27:39;;;;;;;;;4.33;3.00;;;;;28.59;34.45;101982.16;6311690;22;45257;-92
2021/06/09 10:30:34;;;;;;;;;3.00;3.00;;;;;28.74;33.30;101969.97;6311037;22;47015;-91
2021/06/09 10:33:04;;;;;;;;;3.00;3.00;;;;;28.94;33.33;101976.13;6210962;22;45620;-92
2021/06/09 10:35:32;;;;;;;;;3.67;2.67;;;;;29.10;33.13;101972.00;6186811;22;45441;-93
2021/06/09 10:38:01;;;;;;;;;3.67;3.00;;;;;29.26;33.65;101963.31;6187234;22;45586;-92
2021/06/09 10:40:36;;;;;;;;;4.00;4.00;;;;;29.39;33.16;101968.28;6186749;22;45571;-93
2021/06/09 10:43:05;;;;;;;;;4.33;3.33;;;;;29.55;32.89;101965.00;6186333;22;45216;-92
2021/06/09 10:45:37;;;;;;;;;4.33;4.00;;;;;29.70;32.65;101959.09;6187652;22;45507;-92
2021/06/09 10:48:04;;;;;;;;;4.33;4.33;;;;;29.76;32.92;101950.44;6186916;22;45508;-93
2021/06/09 10:50:33;;;;;;;;;6.67;4.67;;;;;29.81;31.98;101952.66;6186466;22;47224;-93
2021/06/09 10:53:06;;;;;;;;;3.33;3.33;;;;;29.88;32.14;101956.41;6186689;22;45512;-93
2021/06/09 10:55:39;;;;;;;;;3.00;3.00;;;;;29.99;31.93;101964.22;6186446;22;45395;-92
2021/06/09 10:58:05;;;;;;;;;4.00;4.00;;;;;30.07;31.31;101963.44;6184791;22;45681;-93
2021/06/09 11:00:30;;;;;;;;;4.33;4.00;;;;;30.17;31.92;101959.88;6184065;22;47245;-92
2021/06/09 11:02:57;;;;;;;;;4.00;4.00;;;;;30.31;31.72;101959.28;6184173;22;45652;-92
2021/06/09 11:05:26;;;;;;;;;3.00;3.00;;;;;30.40;29.61;101960.19;6184863;22;45129;-93
2021/06/09 11:07:53;;;;;;;;;5.00;5.00;;;;;30.43;30.61;101961.72;6209341;22;45922;-92
2021/06/09 11:10:27;;;;;;;;;4.67;4.67;;;;;30.56;30.19;101958.59;6264371;22;46968;-93
2021/06/09 11:12:53;;;;;;;;;3.00;3.00;;;;;30.65;30.51;101953.13;6275387;22;45231;-93
2021/06/09 11:15:34;;;;;;;;;6.00;4.00;;;;;30.80;30.10;101950.72;6309530;22;45183;-92
2021/06/09 11:18:14;;;;;;;;;3.00;3.00;;;;;30.92;29.96;101948.56;6309506;22;45830;-91
2021/06/09 11:20:47;;;;;;;;;4.00;3.00;;;;;31.05;30.10;101945.44;6307920;22;47273;-93
2021/06/09 11:23:33;;;;;;;;;2.67;2.67;;;;;31.26;29.85;101941.47;6307931;22;45552;-93
2021/06/09 11:25:59;;;;;;;;;2.00;2.00;;;;;31.39;29.81;101940.19;6335348;22;45220;-93
2021/06/09 11:28:39;;;;;;;;;3.00;3.00;;;;;31.55;28.51;101948.28;6335832;22;45442;-94
2021/06/09 11:31:20;;;;;;;;;3.00;3.00;;;;;31.64;29.49;101946.44;6308426;22;47321;-93
2021/06/09 11:34:09;;;;;;;;;;;;;;;;;;;;;
2021/06/09 11:36:41;;;;;;;;;5.00;5.00;;;;;31.87;29.11;101935.06;6334230;22;69711;-94